Low Head, Tasmania

3:35 PM AEST on July 29, 2015 (GMT +1000)
Deviot | | Change Station
CLOSE
Current Station
Personal Weather Station
Location: Deviot, TASMANIA
Elevation: 56 ft
Nearby Weather Stations

Elev 56 ft 41.23 °S, 146.93 °E | Updated 4 seconds ago

Overcast
Overcast
51.3 °F
Feels Like 51.3 °F
N
3.8
Wind Variable Wind from NW
Gusts 8.3 mph

Today
High -- | Low -- °F
--% Chance of Precip.
Yesterday
High -- | Low -- °F
Precip. -- in
7:23 AM 5:15 PM
Waxing Gibbous, 93% visible
Pressure 30.24 in
Visibility 3.7 miles
Clouds Scattered Clouds 1600 ft
Mostly Cloudy 2200 ft
Mostly Cloudy 2900 ft
Dew Point 45 °F
Humidity 80%
Rainfall 0.00 in
Snow Depth Not available.
UV 1 out of 12
Pollen Not available.
Air Quality Not available.
Flu Activity Not available.
SPECI YMLT 290534Z AUTO 34015KT 6000 DZ SCT016 BKN022 BKN029 09/07 Q1024

More Conditions Fewer Conditions

Pressure 30.24 in
Visibility 3.7 miles
Clouds Scattered Clouds 1600 ft
Mostly Cloudy 2200 ft
Mostly Cloudy 2900 ft
Dew Point 45 °F
Humidity 80%
Rainfall 0.00 in
Snow Depth Not available.
UV 1 out of 12
Pollen Not available.
Air Quality Not available.
Flu Activity Not available.
SPECI YMLT 290534Z AUTO 34015KT 6000 DZ SCT016 BKN022 BKN029 09/07 Q1024

More Conditions Fewer Conditions

10-Day Weather Forecast

×

Almanac

Astronomy

Jul. 29, 2015 Rise Set
Actual Time
Civil Twilight
Nautical Twilight
Astronomical Twilight
Moon
Length of Visible Light
Length of Day
Tomorrow will be .
, % of the Moon is Illuminated

Today's Extremes

Country Highs Country Lows

Community

WunderPhotos

Upload Photos

1,842,059 photos uploaded!

WunderBlogs® & News

Nearby

Air Quality

  Air Quality AQ Index Pollutant
Not available.

Snow Depth

Station Depth Elevation

Earthquake Activity

City Distance Mag. Time & Date
Minimum magnitude displayed is 2.5.

Coastal Water Temperatures

Place Temperature

Stations

Nearby Weather Stations

Station Location Temp. Windchill Dew Point Humidity Wind Precip. Elev Updated Type